Powellsville, North Carolina
Current Conditions -  °F | °C
As of 2:55 PM on Thursday 30 Oct 2014 (Local Time) from KEDE Reporting Station
Scattered Clouds Scattered Clouds  
Wind Chill: 66°   Ceiling: Unl
Heat Index: 66°   Visibility: 10mi
Dew Point: 49°   Wind: 5mph
Humidity: 54%   Direction: 40°NE
Pressure: 29.97"   Gusts: NA
Location:  36.23°N, 76.93°W
Report Text: KEDE 301855Z AUTO 04004KT 10SM SCT043 19/09 A2997 RMK AO2 T01880092
Loading
Personal Weather Stations






























Interactive Weather Map
Tropical Storm Tracking
New forecast layout! Learn more

10-Day Weather Forecast

Advertisements
Track Severe Weather on mobile